Terminal Aerodrome Forecast
Issued by NWS

Home | Current Version | Previous Version | Text Only | Print | Product List | Glossary On
Versions: 1 2 3 4 5 6 7 8 9 10 11 12 13
663
FTUS42 KTBW 102332
TAFPIE
TAF
KPIE 102332Z 1100/1124 05009KT P6SM FEW040
     FM111000 07009KT P6SM BKN040
     FM111600 10008KT P6SM SCT025 BKN050=

USA.gov is the U.S. government's official web portal to all federal, state and local government web resources and services.